Time;durP1;ratioP1;P1;durP2;ratioP2;P2;SDS_P1;SDS_P2;PMS_P1;PMS_P2;Temp;Humidity;BMP_temperature;BMP_pressure;BME280_temperature;BME280_humidity;BME280_pressure;Samples;Min_cycle;Max_cycle;Signal;HPM_P1;HPM_P2
2021/04/19 00:01:29;;;;;;;6.18;1.90;;;6.00;99.90;;;;;;5102728;28;20461;-74
2021/04/19 00:03:54;;;;;;;7.85;2.22;;;6.00;99.90;;;;;;5117349;28;20023;-74
2021/04/19 00:06:20;;;;;;;7.10;1.80;;;5.90;99.90;;;;;;5116904;28;20027;-74
2021/04/19 00:08:46;;;;;;;6.32;2.15;;;5.90;99.90;;;;;;5116894;28;20483;-74
2021/04/19 00:11:12;;;;;;;6.65;2.08;;;5.80;99.90;;;;;;5099044;28;20016;-74
2021/04/19 00:13:37;;;;;;;5.35;1.85;;;5.80;99.90;;;;;;5098609;28;20536;-74
2021/04/19 00:16:03;;;;;;;15.70;4.07;;;5.90;99.90;;;;;;5116863;28;20427;-74
2021/04/19 00:18:28;;;;;;;6.82;2.58;;;5.90;99.90;;;;;;5098448;28;20023;-74
2021/04/19 00:20:54;;;;;;;10.82;2.30;;;6.00;99.90;;;;;;5098389;28;20099;-75
2021/04/19 00:23:20;;;;;;;8.38;2.38;;;6.10;99.90;;;;;;5098986;28;20093;-75
2021/04/19 00:25:45;;;;;;;7.22;2.28;;;6.10;99.90;;;;;;5117369;28;20014;-75
2021/04/19 00:28:11;;;;;;;7.43;2.60;;;6.10;99.90;;;;;;5116652;28;20019;-74
2021/04/19 00:30:36;;;;;;;10.18;3.65;;;6.20;99.90;;;;;;5116924;28;20073;-75
2021/04/19 00:33:03;;;;;;;7.07;2.90;;;6.30;99.90;;;;;;5117467;28;20020;-73
2021/04/19 00:35:28;;;;;;;11.50;3.42;;;6.30;99.90;;;;;;5116623;28;20034;-73
2021/04/19 00:37:54;;;;;;;7.68;3.22;;;6.10;99.90;;;;;;5097618;28;20023;-74
2021/04/19 00:40:20;;;;;;;9.25;3.50;;;6.20;99.90;;;;;;5116445;28;20023;-74
2021/04/19 00:42:48;;;;;;;10.18;4.30;;;6.20;99.90;;;;;;5098512;28;20024;-74
2021/04/19 00:45:15;;;;;;;12.30;4.05;;;6.20;99.90;;;;;;5098243;28;20046;-74
2021/04/19 00:47:45;;;;;;;7.95;3.60;;;6.20;99.90;;;;;;5116815;28;20028;-74
2021/04/19 00:50:14;;;;;;;17.80;4.00;;;6.10;99.90;;;;;;5115716;28;20016;-74
2021/04/19 00:52:40;;;;;;;11.73;4.55;;;6.10;99.90;;;;;;5116448;28;20034;-73
2021/04/19 00:55:12;;;;;;;9.82;3.42;;;6.00;99.90;;;;;;5116774;28;20102;-75
2021/04/19 00:57:37;;;;;;;8.40;4.00;;;6.00;99.90;;;;;;5115892;28;20050;-74
2021/04/19 01:00:10;;;;;;;10.70;3.92;;;5.90;99.90;;;;;;5117204;28;20019;-75
2021/04/19 01:02:37;;;;;;;9.45;3.92;;;5.90;99.90;;;;;;5116700;28;20020;-74
2021/04/19 01:05:13;;;;;;;9.80;4.25;;;5.90;99.90;;;;;;5098171;28;20019;-74
2021/04/19 01:07:38;;;;;;;11.13;4.32;;;6.00;99.90;;;;;;5097455;28;20024;-74
2021/04/19 01:10:05;;;;;;;13.98;3.90;;;5.90;99.90;;;;;;5116745;28;20027;-73
2021/04/19 01:12:30;;;;;;;11.77;4.40;;;5.90;99.90;;;;;;5098085;28;20028;-74
2021/04/19 01:14:56;;;;;;;10.55;3.97;;;5.80;99.90;;;;;;5116655;28;20065;-72
2021/04/19 01:17:22;;;;;;;9.55;4.10;;;5.70;99.90;;;;;;5116335;28;20437;-73
2021/04/19 01:19:47;;;;;;;10.55;3.83;;;6.90;99.90;;;;;;5115953;28;20069;-73
2021/04/19 01:22:13;;;;;;;11.82;5.07;;;5.60;99.90;;;;;;5106423;22;20044;-74
2021/04/19 01:24:38;;;;;;;8.75;3.88;;;5.60;99.90;;;;;;5096115;28;20024;-73
2021/04/19 01:27:06;;;;;;;11.90;4.45;;;5.50;99.90;;;;;;5077277;28;20016;-74
2021/04/19 01:29:32;;;;;;;7.57;3.95;;;5.50;99.90;;;;;;5094800;28;20016;-74
2021/04/19 01:31:57;;;;;;;7.03;3.45;;;5.40;99.90;;;;;;5097211;28;20035;-75
2021/04/19 01:34:23;;;;;;;11.98;3.70;;;5.40;99.90;;;;;;5115341;28;20070;-74
2021/04/19 01:36:48;;;;;;;12.45;4.32;;;5.30;99.90;;;;;;5115397;28;20027;-74
2021/04/19 01:39:17;;;;;;;10.45;4.68;;;5.20;99.90;;;;;;5115865;28;20040;-73
2021/04/19 01:41:44;;;;;;;9.85;4.32;;;5.20;99.90;;;;;;5097503;28;20414;-74
2021/04/19 01:44:10;;;;;;;10.68;4.13;;;5.20;99.90;;;;;;5115609;28;20019;-75
2021/04/19 01:46:37;;;;;;;12.80;4.30;;;5.20;99.90;;;;;;5115001;28;20080;-72
2021/04/19 01:49:19;;;;;;;11.98;4.40;;;5.10;99.90;;;;;;5097972;28;20062;-74
2021/04/19 01:51:46;;;;;;;11.50;3.83;;;5.10;99.90;;;;;;5117021;28;20062;-74
2021/04/19 01:54:13;;;;;;;10.98;4.35;;;5.00;99.90;;;;;;5181510;22;20107;-76
2021/04/19 01:56:39;;;;;;;14.75;5.03;;;4.90;99.90;;;;;;5095122;28;20157;-76
2021/04/19 01:59:06;;;;;;;11.23;4.65;;;4.90;99.90;;;;;;5094722;28;20030;-76
2021/04/19 02:01:34;;;;;;;9.93;3.65;;;4.90;99.90;;;;;;5114665;28;20498;-76
2021/04/19 02:04:15;;;;;;;12.05;3.88;;;4.90;99.90;;;;;;5097087;28;20027;-77
2021/04/19 02:06:57;;;;;;;9.25;4.35;;;4.90;99.90;;;;;;5097610;28;20026;-74
2021/04/19 02:09:31;;;;;;;10.40;4.57;;;4.80;99.90;;;;;;5096437;28;20024;-75
2021/04/19 02:12:08;;;;;;;12.98;4.97;;;4.80;99.90;;;;;;5116023;28;20032;-75
2021/04/19 02:14:51;;;;;;;9.80;5.07;;;4.80;99.90;;;;;;5096324;28;20023;-75
2021/04/19 02:17:34;;;;;;;14.13;4.75;;;4.80;99.90;;;;;;5096518;28;20716;-76
2021/04/19 02:22:52;;;;;;;11.68;4.95;;;4.80;99.90;;;;;;5072666;28;20048;-75
2021/04/19 02:25:35;;;;;;;10.77;5.20;;;4.70;99.90;;;;;;5074890;28;20029;-74
2021/04/19 02:28:04;;;;;;;15.52;6.15;;;4.70;99.90;;;;;;5056335;28;20016;-76
2021/04/19 02:30:35;;;;;;;13.98;4.93;;;4.70;99.90;;;;;;5074536;28;20481;-76
2021/04/19 02:33:03;;;;;;;13.27;4.72;;;4.70;99.90;;;;;;5056601;28;20424;-74
2021/04/19 02:35:32;;;;;;;18.95;6.82;;;4.70;99.90;;;;;;5074914;28;20089;-76
2021/04/19 02:38:00;;;;;;;;;;;4.70;99.90;;;;;;5057124;28;20461;-74
2021/04/19 02:40:29;;;;;;;14.93;5.57;;;4.70;99.90;;;;;;5074347;28;19999;-76
2021/04/19 02:42:56;;;;;;;14.32;5.63;;;4.70;99.90;;;;;;5073852;28;20039;-74
2021/04/19 02:45:23;;;;;;;17.35;6.53;;;4.60;99.90;;;;;;5074348;28;20108;-74
2021/04/19 02:47:50;;;;;;;12.38;5.55;;;4.60;99.90;;;;;;5074465;28;20032;-75
2021/04/19 02:50:22;;;;;;;23.45;6.97;;;4.60;99.90;;;;;;5074729;28;20017;-74
2021/04/19 02:52:49;;;;;;;13.43;5.68;;;4.60;99.90;;;;;;5056486;28;20115;-74
2021/04/19 02:55:18;;;;;;;15.27;5.85;;;4.50;99.90;;;;;;5056000;28;20016;-74
2021/04/19 02:57:47;;;;;;;;;;;4.50;99.90;;;;;;5074430;28;20059;-74
2021/04/19 03:00:14;;;;;;;11.82;5.65;;;4.40;99.90;;;;;;5073561;28;20391;-75
2021/04/19 03:02:43;;;;;;;18.27;6.13;;;4.40;99.90;;;;;;5074185;28;20075;-74
2021/04/19 03:05:09;;;;;;;;;;;4.40;99.90;;;;;;5056823;28;20052;-74
2021/04/19 03:07:40;;;;;;;21.33;7.00;;;4.40;99.90;;;;;;5074463;28;19910;-74
2021/04/19 03:10:13;;;;;;;16.38;6.85;;;4.40;99.90;;;;;;5073970;28;20043;-74
2021/04/19 03:12:42;;;;;;;18.13;7.68;;;4.50;99.90;;;;;;5073700;28;20025;-74
2021/04/19 03:15:12;;;;;;;19.95;8.73;;;4.50;99.90;;;;;;5074012;28;20021;-74
2021/04/19 03:17:39;;;;;;;19.83;8.80;;;4.60;99.90;;;;;;5073515;28;20021;-74
2021/04/19 03:20:10;;;;;;;21.35;8.82;;;4.60;99.90;;;;;;5073475;28;20388;-74
2021/04/19 03:22:38;;;;;;;19.55;9.38;;;4.60;99.90;;;;;;5077122;28;20044;-74
2021/04/19 03:25:06;;;;;;;24.73;10.30;;;4.70;99.90;;;;;;5059392;28;20109;-74
2021/04/19 03:27:33;;;;;;;23.97;9.27;;;4.70;99.90;;;;;;5077498;28;20016;-74
2021/04/19 03:30:00;;;;;;;24.52;9.77;;;4.80;99.90;;;;;;5077536;28;20040;-75
2021/04/19 03:32:31;;;;;;;24.73;11.10;;;4.80;99.90;;;;;;5077611;28;20017;-75
2021/04/19 03:35:00;;;;;;;25.23;10.43;;;4.90;99.90;;;;;;5059760;28;20027;-74
2021/04/19 03:37:30;;;;;;;21.98;9.38;;;4.80;99.90;;;;;;5059504;28;20058;-75
2021/04/19 03:40:20;;;;;;;22.83;11.68;;;5.00;99.90;;;;;;5058914;28;20033;-75
2021/04/19 03:42:48;;;;;;;24.08;10.88;;;5.00;99.90;;;;;;5074547;22;20027;-75
2021/04/19 03:45:14;;;;;;;20.60;9.73;;;5.00;99.90;;;;;;5097898;28;20090;-75
2021/04/19 03:47:43;;;;;;;22.25;10.25;;;5.10;99.90;;;;;;5085357;28;20523;-76
2021/04/19 03:50:10;;;;;;;;;;;5.10;99.90;;;;;;5099821;28;20047;-75
2021/04/19 03:52:39;;;;;;;22.80;10.27;;;5.00;99.90;;;;;;5102850;22;20488;-75
2021/04/19 03:55:09;;;;;;;25.73;9.73;;;5.00;99.90;;;;;;5117067;22;20495;-75
2021/04/19 03:57:36;;;;;;;23.70;10.38;;;5.00;99.90;;;;;;5097672;28;20027;-75
2021/04/19 04:00:07;;;;;;;27.15;10.82;;;4.90;99.90;;;;;;5097633;28;20017;-74
2021/04/19 04:02:37;;;;;;;30.05;11.38;;;4.90;99.90;;;;;;5097191;28;20028;-75
2021/04/19 04:05:04;;;;;;;31.15;11.27;;;4.80;99.90;;;;;;5078882;28;20107;-75
2021/04/19 04:07:33;;;;;;;27.95;11.38;;;4.90;99.90;;;;;;5097207;28;20032;-75
2021/04/19 04:10:00;;;;;;;25.23;11.32;;;4.90;99.90;;;;;;5096964;28;20028;-75
2021/04/19 04:12:26;;;;;;;23.00;11.18;;;4.80;99.90;;;;;;5078798;28;20444;-74
2021/04/19 04:14:57;;;;;;;24.30;11.30;;;4.80;99.90;;;;;;5079385;28;20050;-75
2021/04/19 04:17:23;;;;;;;22.92;11.05;;;4.80;99.90;;;;;;5097026;28;20020;-75
2021/04/19 04:19:49;;;;;;;27.13;11.60;;;4.80;99.90;;;;;;5096990;28;20035;-75
2021/04/19 04:22:16;;;;;;;27.33;12.70;;;5.10;99.90;;;;;;5096906;28;20020;-75
2021/04/19 04:24:42;;;;;;;24.38;11.90;;;4.80;99.90;;;;;;5077748;28;20024;-75
2021/04/19 04:27:09;;;;;;;27.33;11.55;;;4.80;99.90;;;;;;5096352;28;20016;-75
2021/04/19 04:29:35;;;;;;;31.80;14.50;;;4.90;99.90;;;;;;5078556;28;20013;-75
2021/04/19 04:32:01;;;;;;;26.13;12.55;;;4.90;99.90;;;;;;5096543;28;20027;-75
2021/04/19 04:34:27;;;;;;;25.88;13.00;;;4.90;99.90;;;;;;5095836;28;20024;-73
2021/04/19 04:36:52;;;;;;;25.88;12.52;;;4.90;99.90;;;;;;5079669;28;20031;-75
2021/04/19 04:39:18;;;;;;;27.08;12.95;;;4.90;99.90;;;;;;5078170;28;20020;-75
2021/04/19 04:41:44;;;;;;;28.95;13.63;;;5.00;99.90;;;;;;5096491;28;20051;-75
2021/04/19 04:44:13;;;;;;;29.13;13.55;;;5.00;99.90;;;;;;5097059;28;20024;-74
2021/04/19 04:46:48;;;;;;;24.10;12.70;;;5.00;99.90;;;;;;5096876;28;20462;-76
2021/04/19 04:49:23;;;;;;;30.48;12.73;;;5.00;99.90;;;;;;5079388;28;20028;-76
2021/04/19 04:51:49;;;;;;;30.65;14.13;;;5.10;99.90;;;;;;5096570;28;20024;-75
2021/04/19 04:54:19;;;;;;;39.42;14.57;;;5.10;99.90;;;;;;5078765;28;20028;-74
2021/04/19 04:56:50;;;;;;;29.73;13.00;;;5.10;99.90;;;;;;5109479;22;20040;-75
2021/04/19 04:59:16;;;;;;;65.38;14.52;;;5.10;99.90;;;;;;5096025;28;20032;-74
2021/04/19 05:01:44;;;;;;;46.25;14.13;;;5.20;99.90;;;;;;5099189;28;20028;-76
2021/04/19 05:04:11;;;;;;;67.07;15.23;;;5.20;99.90;;;;;;5117268;28;20024;-77
2021/04/19 05:06:37;;;;;;;41.85;14.35;;;5.30;99.90;;;;;;5116597;28;20384;-77
2021/04/19 05:09:07;;;;;;;51.80;15.43;;;5.40;99.90;;;;;;5098473;28;20106;-77
2021/04/19 05:11:32;;;;;;;48.33;15.38;;;5.50;99.90;;;;;;5095756;22;20044;-76
2021/04/19 05:14:04;;;;;;;47.22;14.68;;;4.10;99.90;;;;;;5076163;28;20031;-76
2021/04/19 05:16:33;;;;;;;72.78;15.52;;;5.50;99.90;;;;;;5076967;28;20456;-75
2021/04/19 05:19:00;;;;;;;87.22;14.45;;;5.60;99.90;;;;;;5076179;28;20017;-75
2021/04/19 05:21:26;;;;;;;75.25;14.85;;;5.60;99.90;;;;;;5058454;28;20036;-75
2021/04/19 05:23:53;;;;;;;56.08;14.52;;;5.70;99.90;;;;;;5075938;28;20021;-76
2021/04/19 05:26:20;;;;;;;54.83;13.63;;;5.70;99.90;;;;;;5092843;22;20048;-76
2021/04/19 05:28:46;;;;;;;80.32;14.98;;;5.40;99.90;;;;;;5076152;28;20024;-76
2021/04/19 05:31:12;;;;;;;68.68;14.05;;;5.80;99.90;;;;;;5056113;28;20362;-74
2021/04/19 05:33:38;;;;;;;98.95;16.25;;;5.80;99.90;;;;;;5071618;22;20098;-73
2021/04/19 05:36:12;;;;;;;56.10;15.88;;;5.90;99.90;;;;;;5075979;28;20552;-74
2021/04/19 05:38:41;;;;;;;74.15;15.02;;;5.90;99.90;;;;;;5092263;22;20028;-74
2021/04/19 05:41:09;;;;;;;137.77;16.63;;;6.00;99.90;;;;;;5075222;28;20496;-75
2021/04/19 05:43:41;;;;;;;137.65;17.52;;;6.10;99.90;;;;;;5057006;28;20028;-76
2021/04/19 05:46:08;;;;;;;60.08;14.70;;;6.20;99.90;;;;;;5075321;28;20046;-74
2021/04/19 05:48:34;;;;;;;42.00;15.07;;;6.20;99.90;;;;;;5051427;28;20013;-74
2021/04/19 05:51:03;;;;;;;64.93;15.20;;;6.30;99.90;;;;;;5059714;28;20023;-74
2021/04/19 05:53:29;;;;;;;47.88;15.43;;;6.40;99.90;;;;;;5074498;28;20095;-74
2021/04/19 05:55:56;;;;;;;50.47;15.95;;;6.40;99.90;;;;;;5067665;22;20135;-74
2021/04/19 05:58:26;;;;;;;60.25;15.30;;;6.50;99.90;;;;;;5054024;28;20099;-75
2021/04/19 06:01:04;;;;;;;45.28;15.90;;;6.50;99.90;;;;;;5055045;28;20064;-75
2021/04/19 06:04:04;;;;;;;37.17;16.20;;;6.60;99.90;;;;;;5053893;28;20132;-75
2021/04/19 06:06:41;;;;;;;38.35;16.55;;;6.70;99.90;;;;;;5069371;28;20071;-75
2021/04/19 06:09:13;;;;;;;44.40;16.23;;;6.70;99.90;;;;;;5056765;28;20389;-76
2021/04/19 06:11:56;;;;;;;44.08;16.90;;;6.80;99.90;;;;;;5056673;28;20020;-76
2021/04/19 06:14:30;;;;;;;37.28;15.48;;;6.90;99.90;;;;;;5056380;28;20127;-76
2021/04/19 06:19:30;;;;;;;46.42;16.33;;;7.00;99.90;;;;;;5052726;28;20045;-77
2021/04/19 06:21:55;;;;;;;31.85;14.32;;;7.00;99.90;;;;;;5055032;28;20036;-75
2021/04/19 06:24:21;;;;;;;42.75;15.85;;;7.10;99.90;;;;;;5036165;28;20013;-77
2021/04/19 06:26:48;;;;;;;37.17;14.30;;;7.10;99.90;;;;;;5125083;23;20048;-75
2021/04/19 06:29:14;;;;;;;40.40;15.20;;;7.20;99.90;;;;;;5074745;28;20013;-75
2021/04/19 06:31:50;;;;;;;33.70;15.50;;;7.20;99.90;;;;;;5056229;28;20028;-76
2021/04/19 06:34:17;;;;;;;30.55;14.15;;;7.20;99.90;;;;;;5056278;28;20020;-74
2021/04/19 06:36:45;;;;;;;40.28;14.68;;;7.20;99.90;;;;;;5074055;28;20412;-75
2021/04/19 06:39:13;;;;;;;32.10;14.00;;;7.30;99.90;;;;;;5055966;28;20024;-76
2021/04/19 06:41:40;;;;;;;37.13;16.02;;;7.30;99.90;;;;;;5074122;28;20025;-74
2021/04/19 06:44:06;;;;;;;37.40;15.23;;;7.30;99.90;;;;;;5074040;28;20400;-76
2021/04/19 06:46:35;;;;;;;42.28;15.48;;;7.40;99.90;;;;;;5086342;22;20045;-77
2021/04/19 06:49:02;;;;;;;33.80;14.85;;;7.50;99.90;;;;;;5055387;28;20031;-76
2021/04/19 06:51:29;;;;;;;32.40;15.32;;;7.60;99.90;;;;;;5087269;22;20048;-75
2021/04/19 06:53:57;;;;;;;39.03;15.43;;;7.60;99.90;;;;;;5081485;28;20022;-77
2021/04/19 06:56:25;;;;;;;32.90;15.77;;;7.80;99.90;;;;;;5093683;28;20074;-76
2021/04/19 06:58:53;;;;;;;32.88;14.18;;;7.90;99.90;;;;;;5078049;28;20088;-74
2021/04/19 07:01:21;;;;;;;33.45;14.20;;;8.00;99.90;;;;;;5071583;28;20025;-75
2021/04/19 07:03:49;;;;;;;32.13;13.85;;;8.10;99.90;;;;;;5053833;28;20029;-75
2021/04/19 07:06:16;;;;;;;29.70;15.00;;;8.30;99.90;;;;;;5053412;28;20075;-75
2021/04/19 07:08:55;;;;;;;31.60;13.38;;;8.40;99.90;;;;;;5041257;28;20028;-74
2021/04/19 07:11:21;;;;;;;29.95;12.82;;;8.60;99.90;;;;;;5040075;28;20031;-75
2021/04/19 07:13:48;;;;;;;27.25;12.70;;;8.70;99.90;;;;;;5075211;22;20071;-78
2021/04/19 07:16:14;;;;;;;27.05;11.93;;;8.90;99.90;;;;;;5093676;28;20181;-77
2021/04/19 07:18:39;;;;;;;25.75;10.63;;;9.10;99.90;;;;;;5107980;28;20095;-75
2021/04/19 07:21:06;;;;;;;25.65;11.30;;;9.20;99.90;;;;;;5096494;28;20023;-75
2021/04/19 07:23:36;;;;;;;21.15;11.15;;;9.30;99.90;;;;;;5121252;22;20066;-74
2021/04/19 07:26:06;;;;;;;23.17;11.52;;;9.80;99.90;;;;;;5067061;28;20032;-75
2021/04/19 07:28:36;;;;;;;23.08;10.75;;;10.50;99.90;;;;;;5093874;28;20016;-76
2021/04/19 07:31:04;;;;;;;20.83;10.50;;;9.30;99.90;;;;;;5113861;28;20039;-75
2021/04/19 07:33:32;;;;;;;29.05;11.75;;;9.70;99.90;;;;;;5114237;28;20080;-77
2021/04/19 07:36:17;;;;;;;17.73;9.65;;;9.70;99.90;;;;;;5096198;28;20050;-76
2021/04/19 07:38:43;;;;;;;23.48;10.35;;;9.80;99.90;;;;;;5095383;28;20433;-76
2021/04/19 07:41:08;;;;;;;26.83;12.18;;;9.80;99.90;;;;;;5114797;28;20422;-78
2021/04/19 07:43:40;;;;;;;24.55;11.55;;;9.80;99.90;;;;;;5113793;28;20027;-77
2021/04/19 07:46:18;;;;;;;20.48;10.93;;;9.90;99.90;;;;;;5114033;28;20446;-75
2021/04/19 07:48:45;;;;;;;21.85;10.48;;;9.90;99.90;;;;;;5113388;28;20131;-78
2021/04/19 07:51:29;;;;;;;25.52;10.65;;;10.00;99.90;;;;;;5112623;28;20024;-78
2021/04/19 07:54:24;;;;;;;24.38;11.43;;;10.10;99.90;;;;;;5112919;28;20098;-78
2021/04/19 07:56:53;;;;;;;20.88;10.55;;;10.10;99.90;;;;;;5103779;28;20043;-76
2021/04/19 07:59:23;;;;;;;19.08;10.57;;;10.40;99.90;;;;;;5092219;28;20077;-75
2021/04/19 08:02:00;;;;;;;23.08;10.80;;;10.50;99.90;;;;;;5091407;28;20069;-76
2021/04/19 08:04:27;;;;;;;20.95;9.75;;;10.50;99.90;;;;;;5113430;28;20052;-75
2021/04/19 08:06:53;;;;;;;19.58;9.30;;;10.60;99.90;;;;;;5096516;28;20031;-76
2021/04/19 08:09:27;;;;;;;22.13;9.93;;;10.70;99.90;;;;;;5119804;28;20532;-75
2021/04/19 08:11:59;;;;;;;19.70;9.65;;;10.80;99.90;;;;;;5117321;28;20076;-75
2021/04/19 08:14:31;;;;;;;22.23;8.75;;;10.90;99.90;;;;;;5117050;28;20023;-76
2021/04/19 08:17:11;;;;;;;22.73;9.40;;;11.00;99.90;;;;;;5116963;28;20027;-75
2021/04/19 08:19:39;;;;;;;18.00;9.50;;;11.10;99.90;;;;;;5109912;22;20110;-75
2021/04/19 08:22:15;;;;;;;;;;;11.50;99.90;;;;;;5079053;28;20489;-76
2021/04/19 08:24:46;;;;;;;19.67;8.88;;;11.70;99.90;;;;;;5080212;28;19911;-77
2021/04/19 08:27:25;;;;;;;21.23;8.70;;;11.80;99.90;;;;;;5069277;28;20027;-75
2021/04/19 08:29:56;;;;;;;17.70;9.23;;;13.30;99.90;;;;;;5102386;28;20073;-75
2021/04/19 08:32:23;;;;;;;18.27;8.18;;;11.80;99.90;;;;;;5078503;28;20181;-76
2021/04/19 08:34:50;;;;;;;19.15;9.70;;;11.70;99.90;;;;;;5108209;22;20040;-76
2021/04/19 08:37:21;;;;;;;17.08;9.10;;;11.80;99.90;;;;;;5078106;28;20020;-77
2021/04/19 08:39:48;;;;;;;18.65;8.80;;;11.90;99.90;;;;;;5105517;22;20032;-75
2021/04/19 08:42:15;;;;;;;18.75;9.75;;;12.00;99.90;;;;;;5035364;28;20495;-77
2021/04/19 08:44:42;;;;;;;17.55;9.02;;;12.10;99.90;;;;;;5018489;28;20081;-76
2021/04/19 08:47:09;;;;;;;19.42;9.52;;;12.20;99.90;;;;;;5036291;28;20025;-77
2021/04/19 08:49:35;;;;;;;18.05;8.40;;;12.30;99.90;;;;;;5037131;28;20050;-78
2021/04/19 08:52:01;;;;;;;17.75;8.65;;;12.50;99.90;;;;;;5035570;28;20032;-76
2021/04/19 08:54:28;;;;;;;16.92;9.13;;;12.60;99.90;;;;;;5059991;23;20055;-75
2021/04/19 08:56:54;;;;;;;15.65;8.38;;;12.70;99.90;;;;;;5075560;28;20111;-76
2021/04/19 08:59:22;;;;;;;20.30;9.48;;;12.70;99.90;;;;;;5056305;28;20040;-74
2021/04/19 09:01:53;;;;;;;17.80;9.18;;;12.80;99.90;;;;;;5054474;28;20017;-75
2021/04/19 09:04:23;;;;;;;16.27;8.93;;;12.90;99.90;;;;;;5055690;28;20470;-78
2021/04/19 09:06:52;;;;;;;18.30;9.40;;;13.10;99.90;;;;;;5056876;28;20028;-75
2021/04/19 09:09:33;;;;;;;16.83;8.52;;;13.20;99.90;;;;;;5067278;28;20040;-75
2021/04/19 09:12:11;;;;;;;19.23;10.00;;;13.10;99.90;;;;;;5068180;28;20032;-75
2021/04/19 09:14:39;;;;;;;20.55;9.45;;;13.00;99.90;;;;;;5051186;28;20026;-75
2021/04/19 09:17:06;;;;;;;20.17;9.32;;;13.00;99.90;;;;;;5035308;28;20018;-74
2021/04/19 09:19:35;;;;;;;13.52;7.53;;;13.10;99.90;;;;;;5067389;28;20052;-78
2021/04/19 09:22:08;;;;;;;15.48;7.53;;;13.20;99.90;;;;;;5054765;28;20381;-76
2021/04/19 09:25:05;;;;;;;10.70;6.20;;;13.40;99.90;;;;;;5056903;28;20074;-78
2021/04/19 09:27:57;;;;;;;9.00;5.68;;;13.70;99.90;;;;;;5050303;22;20091;-76
2021/04/19 09:30:27;;;;;;;11.73;4.95;;;13.90;99.90;;;;;;5059008;22;20484;-76
2021/04/19 09:33:05;;;;;;;10.70;5.07;;;14.10;99.90;;;;;;5088734;22;20107;-75
2021/04/19 09:35:49;;;;;;;9.98;5.35;;;14.40;99.90;;;;;;5074024;28;20039;-76
2021/04/19 09:38:33;;;;;;;9.95;5.00;;;14.70;99.90;;;;;;5053044;28;20411;-76
2021/04/19 09:41:17;;;;;;;9.52;4.95;;;15.00;99.00;;;;;;5053160;28;20025;-75
2021/04/19 09:43:44;;;;;;;8.48;3.92;;;15.20;97.30;;;;;;5054444;28;20033;-76
2021/04/19 09:46:16;;;;;;;6.20;3.72;;;15.30;95.50;;;;;;5037398;28;20123;-75
2021/04/19 09:48:55;;;;;;;7.53;3.90;;;15.30;94.20;;;;;;5052942;28;20485;-75
2021/04/19 09:51:24;;;;;;;6.70;3.47;;;15.30;94.00;;;;;;5068128;28;20452;-75
2021/04/19 09:54:01;;;;;;;8.18;4.20;;;15.30;93.20;;;;;;5074250;28;20025;-76
2021/04/19 09:56:44;;;;;;;13.00;4.30;;;15.30;93.60;;;;;;5074227;28;20031;-76
2021/04/19 09:59:15;;;;;;;7.40;2.95;;;15.20;93.70;;;;;;5073584;28;20024;-74
2021/04/19 10:01:40;;;;;;;5.43;2.95;;;15.20;92.00;;;;;;5073829;28;20047;-74
2021/04/19 10:04:06;;;;;;;7.32;3.53;;;15.00;90.90;;;;;;5073672;28;20028;-74
2021/04/19 10:06:38;;;;;;;7.22;3.25;;;14.90;91.50;;;;;;5073731;28;20021;-74
2021/04/19 10:09:08;;;;;;;9.45;4.47;;;14.80;92.10;;;;;;5073707;28;20023;-74
2021/04/19 10:11:39;;;;;;;6.10;3.30;;;14.70;92.40;;;;;;5056109;28;20043;-74
2021/04/19 10:14:22;;;;;;;5.03;3.17;;;14.80;93.10;;;;;;5055529;28;20115;-76
2021/04/19 10:16:50;;;;;;;6.95;3.40;;;14.90;92.40;;;;;;5074036;28;20032;-75
2021/04/19 10:19:27;;;;;;;5.55;3.08;;;15.00;91.30;;;;;;5076550;22;20067;-74
2021/04/19 10:22:10;;;;;;;5.90;3.53;;;14.90;90.40;;;;;;5073946;28;20046;-77
2021/04/19 10:24:50;;;;;;;7.43;3.92;;;14.80;91.20;;;;;;5101319;28;20035;-77
2021/04/19 10:27:28;;;;;;;6.47;3.20;;;14.70;91.90;;;;;;5114671;28;20079;-75
2021/04/19 10:29:55;;;;;;;8.13;3.67;;;14.60;93.10;;;;;;5081661;28;20403;-74
2021/04/19 10:32:28;;;;;;;5.43;3.33;;;14.70;93.10;;;;;;5074920;28;20062;-77
2021/04/19 10:34:54;;;;;;;7.38;3.63;;;14.70;91.80;;;;;;5094004;28;20024;-75
2021/04/19 10:37:20;;;;;;;6.78;2.90;;;14.70;91.90;;;;;;5093582;28;20111;-75
2021/04/19 10:39:46;;;;;;;5.13;2.75;;;14.90;91.60;;;;;;5093848;28;20074;-74
2021/04/19 10:42:12;;;;;;;4.50;2.55;;;15.00;91.10;;;;;;5094084;28;20043;-75
2021/04/19 10:47:33;;;;;;;3.67;1.73;;;15.10;89.30;;;;;;5159172;22;20048;-76
2021/04/19 10:50:04;;;;;;;4.15;1.38;;;15.00;88.40;;;;;;5075462;28;20468;-76
2021/04/19 10:52:30;;;;;;;2.25;1.30;;;15.10;86.50;;;;;;5075564;28;20506;-76
2021/04/19 10:54:56;;;;;;;1.17;0.70;;;15.20;81.30;;;;;;5086570;22;20051;-76
2021/04/19 10:57:23;;;;;;;2.53;0.80;;;15.30;79.10;;;;;;5036495;28;20036;-75
2021/04/19 10:59:50;;;;;;;1.23;0.50;;;15.50;80.60;;;;;;5035383;28;20445;-74
2021/04/19 11:04:43;;;;;;;1.33;0.80;;;15.50;75.40;;;;;;5114781;22;20066;-75
2021/04/19 11:07:26;;;;;;;2.25;0.93;;;15.50;77.10;;;;;;5097689;28;20027;-75
2021/04/19 11:10:14;;;;;;;1.65;0.88;;;15.50;75.70;;;;;;5112282;22;20059;-76
2021/04/19 11:12:52;;;;;;;3.38;1.10;;;15.80;75.10;;;;;;5102610;23;20040;-75
2021/04/19 11:15:18;;;;;;;2.60;1.50;;;15.80;72.50;;;;;;5035833;28;20017;-74
2021/04/19 11:20:24;;;;;;;1.75;1.10;;;15.80;73.40;;;;;;5086585;22;20067;-75
2021/04/19 11:22:50;;;;;;;2.80;1.58;;;15.70;74.70;;;;;;5074364;28;20572;-76
2021/04/19 11:25:26;;;;;;;3.33;2.05;;;16.00;75.10;;;;;;5056656;28;20044;-77
2021/04/19 11:28:16;;;;;;;6.60;2.33;;;16.30;73.60;;;;;;5095778;28;20066;-75
2021/04/19 11:30:42;;;;;;;4.45;2.42;;;16.50;71.00;;;;;;5059293;28;20032;-76
2021/04/19 11:33:10;;;;;;;2.25;1.55;;;16.50;72.10;;;;;;5086825;28;20392;-75
2021/04/19 11:35:40;;;;;;;3.20;1.67;;;16.50;72.00;;;;;;5093291;28;20380;-77
2021/04/19 11:38:08;;;;;;;2.95;1.60;;;16.40;71.50;;;;;;5066045;28;20032;-75
2021/04/19 11:40:39;;;;;;;3.20;1.60;;;16.40;72.10;;;;;;5055279;28;20060;-75
2021/04/19 11:43:18;;;;;;;3.38;1.33;;;16.60;71.00;;;;;;5058468;28;20025;-76
2021/04/19 11:45:46;;;;;;;;;;;16.60;70.00;;;;;;5082889;28;20397;-76
2021/04/19 11:48:13;;;;;;;4.93;1.98;;;16.60;70.30;;;;;;5079637;28;20003;-76
2021/04/19 11:50:40;;;;;;;5.40;2.10;;;16.60;70.20;;;;;;5097483;28;20465;-76
2021/04/19 11:53:06;;;;;;;1.95;1.42;;;16.70;69.60;;;;;;5084760;22;20045;-74
2021/04/19 11:55:33;;;;;;;2.80;1.02;;;17.00;69.90;;;;;;5050602;28;20017;-76
2021/04/19 11:57:58;;;;;;;1.45;1.10;;;17.30;68.30;;;;;;5056206;28;20053;-75
2021/04/19 12:00:27;;;;;;;2.92;1.27;;;17.80;66.70;;;;;;5057579;28;20118;-75
2021/04/19 12:03:03;;;;;;;2.05;1.25;;;18.10;65.20;;;;;;5040127;28;20064;-77
2021/04/19 12:05:28;;;;;;;2.75;1.52;;;18.20;63.10;;;;;;5038823;28;20111;-76
2021/04/19 12:07:57;;;;;;;2.97;1.52;;;18.30;61.10;;;;;;5039182;28;20048;-76
2021/04/19 12:10:23;;;;;;;2.40;1.23;;;18.10;61.00;;;;;;5057982;28;20064;-78
2021/04/19 12:12:48;;;;;;;3.08;2.08;;;18.00;61.80;;;;;;5042090;28;20017;-78
2021/04/19 12:15:36;;;;;;;4.13;1.00;;;17.90;61.90;;;;;;5039455;28;20059;-75
2021/04/19 12:18:34;;;;;;;2.15;1.30;;;18.50;64.70;;;;;;5053366;28;20393;-76
2021/04/19 12:21:24;;;;;;;3.17;1.48;;;19.00;62.10;;;;;;5135969;22;20101;-76
2021/04/19 12:24:10;;;;;;;2.40;1.30;;;20.30;60.00;;;;;;5093949;28;20388;-75
2021/04/19 12:26:39;;;;;;;1.98;1.38;;;19.50;59.10;;;;;;5098414;28;20495;-74
2021/04/19 12:29:08;;;;;;;2.00;1.10;;;21.50;57.80;;;;;;5080994;28;20016;-75
2021/04/19 12:31:34;;;;;;;1.80;0.98;;;23.60;55.40;;;;;;5077277;28;20024;-75
2021/04/19 12:34:19;;;;;;;3.60;1.52;;;20.20;52.30;;;;;;5077893;28;20369;-75
2021/04/19 12:37:01;;;;;;;1.08;0.80;;;19.80;52.90;;;;;;5095276;28;20043;-76
2021/04/19 12:39:27;;;;;;;1.45;0.90;;;19.60;54.80;;;;;;5114419;22;20044;-76
2021/04/19 12:41:53;;;;;;;1.48;0.85;;;19.10;55.30;;;;;;5097047;28;20032;-76
2021/04/19 12:44:18;;;;;;;1.58;1.00;;;18.80;56.00;;;;;;5090554;22;20436;-76
2021/04/19 12:46:44;;;;;;;1.15;0.75;;;18.40;56.30;;;;;;5076279;28;20028;-77
2021/04/19 12:49:10;;;;;;;1.63;1.00;;;18.10;56.80;;;;;;5071156;22;20537;-75
2021/04/19 12:51:37;;;;;;;1.25;0.77;;;17.90;57.30;;;;;;5075732;28;20087;-76
2021/04/19 12:54:03;;;;;;;2.40;1.00;;;17.60;58.60;;;;;;5069135;28;20509;-75
2021/04/19 12:56:28;;;;;;;11.50;1.13;;;17.40;60.30;;;;;;5100008;22;20036;-75
2021/04/19 12:58:54;;;;;;;3.25;1.38;;;17.00;59.60;;;;;;5077582;28;20059;-75
2021/04/19 13:01:20;;;;;;;3.38;1.52;;;17.10;60.80;;;;;;5111347;23;20044;-78
2021/04/19 13:03:45;;;;;;;2.70;1.30;;;16.90;60.10;;;;;;5081182;28;20399;-77
2021/04/19 13:06:11;;;;;;;3.55;1.48;;;16.90;61.00;;;;;;5077635;28;20071;-77
2021/04/19 13:08:36;;;;;;;1.73;1.10;;;16.70;61.00;;;;;;5081400;28;20488;-75
2021/04/19 13:11:02;;;;;;;2.92;1.40;;;16.60;62.20;;;;;;5075554;28;20024;-76
2021/04/19 13:13:27;;;;;;;1.98;1.15;;;16.60;61.30;;;;;;5057428;28;20017;-75